Belton, TX (76513)

12:13 PM CST en Enero 28, 2015 (GMT -0600)
BeltonLakeTx | Change Station
CLOSE
Current Station
Estación meteorológica personal
Location: Belton, TX
Altura: 778 ft
Estaciones meteorológicas cercanas

Alt 778 ft 31.12 °N, 97.53 °W | Updated 13 minutes ago

Despejado
Despejado
80.2 ° F
Sensación térmica 79 ° F
N
5.4
Viento Variable Viento desde Sur
Gusts 10.7 mph

Hoy
Alta -- | Baja -- ° F
--% Posibilidad de precipitaciones
Ayer
Alta -- | Baja -- ° F
Precip. -- pul
7:24 AM 6:01 PM
Gibosa creciente, 66% visible
Presión 30.15 pul
Visibilidad 10.0 Millas
Nubes Despejado
Índice de calor 79 ° F
Punto de rocío 48 ° F
Humedad 32%
Precipitaciones 0.00 pul
Espesor de la nieve No disponible.
UV 5 de una escala de 12
Polen 7.50 de una escala de 12
Calidad del aire No disponible.
Flu Activity No disponible.
METAR KTPL 281755Z AUTO 17007KT 10SM CLR 22/07 A3015 RMK AO1 10220 20070 54000

More Conditions Fewer Conditions

Presión 30.15 pul
Visibilidad 10.0 Millas
Nubes Despejado
Índice de calor 79 ° F
Punto de rocío 48 ° F
Humedad 32%
Precipitaciones 0.00 pul
Espesor de la nieve No disponible.
UV 5 de una escala de 12
Polen 7.50 de una escala de 12
Calidad del aire No disponible.
Flu Activity No disponible.
METAR KTPL 281755Z AUTO 17007KT 10SM CLR 22/07 A3015 RMK AO1 10220 20070 54000

More Conditions Fewer Conditions

10-Day Weather Forecast

Almanac

Astronomía

Jan. 28, 2015 Salida Puesta
Hora real
Crepúsculo civil
Crepúsculo náutico
Crepúsculo astronómico
Luna
Horas de luz
Horas de luz
Tomorrow will be .
, % of the Moon is Illuminated

Extremos de hoy

Máximos del estado Bajos del estado

Community

WunderPhotos

Upload Photos

1,791,237 ¡fotos cargadas!

WunderBlogs® & News

Nearby

Calidad del aire

  Calidad del aire Índice AQ Contaminante
Not available.

Grosos de nieve

Estación Profundido Altura

Actividad de terremotos

Ciudad Distance Mag. Tiempo y dato
Magnitud mínima muestra es 2,5.

Temperaturas de aguas costeras

Lugar Temperatura

Estaciones meteorológicas cercanas